createdAt,value
2022-10-01T00:02:12.079Z,8.10
2022-10-01T00:04:39.915Z,8.00
2022-10-01T00:07:10.371Z,8.00
2022-10-01T00:09:37.151Z,8.00
2022-10-01T00:12:04.003Z,8.00
2022-10-01T00:14:30.727Z,8.00
2022-10-01T00:16:57.471Z,8.00
2022-10-01T00:19:24.288Z,8.00
2022-10-01T00:21:51.074Z,7.90
2022-10-01T00:24:17.818Z,7.90
2022-10-01T00:26:45.592Z,7.90
2022-10-01T00:29:13.378Z,7.90
2022-10-01T00:31:40.223Z,7.80
2022-10-01T00:34:07.080Z,7.80
2022-10-01T00:36:34.324Z,7.90
2022-10-01T00:39:02.021Z,7.80
2022-10-01T00:41:30.356Z,7.90
2022-10-01T00:44:01.558Z,7.90
2022-10-01T00:46:45.229Z,7.80
2022-10-01T00:49:20.866Z,7.80
2022-10-01T00:51:50.755Z,7.80
2022-10-01T00:54:22.524Z,7.80
2022-10-01T00:56:51.286Z,7.70
2022-10-01T00:59:18.183Z,7.70
2022-10-01T01:01:45.132Z,7.70
2022-10-01T01:04:17.960Z,7.80
2022-10-01T01:06:45.949Z,7.70
2022-10-01T01:09:13.018Z,7.70
2022-10-01T01:11:57.879Z,7.70
2022-10-01T01:14:29.319Z,7.70
2022-10-01T01:16:59.211Z,7.70
2022-10-01T01:19:38.263Z,7.70
2022-10-01T01:22:06.818Z,7.70
2022-10-01T01:24:39.351Z,7.70
2022-10-01T01:27:09.204Z,7.70
2022-10-01T01:29:41.806Z,7.80
2022-10-01T01:32:21.733Z,7.80
2022-10-01T01:34:50.219Z,7.80
2022-10-01T01:37:18.204Z,7.80
2022-10-01T01:39:47.617Z,7.80
2022-10-01T01:42:17.830Z,7.80
2022-10-01T01:44:45.878Z,7.80
2022-10-01T01:47:13.317Z,7.80
2022-10-01T01:49:40.737Z,7.80
2022-10-01T01:52:13.403Z,7.80
2022-10-01T01:54:40.598Z,7.80
2022-10-01T01:57:08.032Z,7.80
2022-10-01T01:59:35.500Z,7.80
2022-10-01T02:02:03.322Z,7.80
2022-10-01T02:04:34.080Z,7.80
2022-10-01T02:07:19.094Z,7.80
2022-10-01T02:10:04.496Z,7.80
2022-10-01T02:12:33.981Z,7.80
2022-10-01T02:15:08.570Z,7.80
2022-10-01T02:17:35.252Z,7.80
2022-10-01T02:20:02.915Z,7.80
2022-10-01T02:22:42.309Z,7.80
2022-10-01T02:25:10.312Z,7.80
2022-10-01T02:27:40.244Z,7.90
2022-10-01T02:30:08.555Z,7.90
2022-10-01T02:32:39.769Z,7.90
2022-10-01T02:35:08.607Z,7.90
2022-10-01T02:37:36.783Z,7.90
2022-10-01T02:40:04.971Z,7.90
2022-10-01T02:42:32.978Z,7.90
2022-10-01T02:45:02.445Z,7.90
2022-10-01T02:47:55.749Z,7.90
2022-10-01T02:50:24.015Z,7.90
2022-10-01T02:52:56.285Z,7.90
2022-10-01T02:55:28.818Z,7.90
2022-10-01T02:57:56.212Z,7.90
2022-10-01T03:00:23.643Z,7.90
2022-10-01T03:02:50.510Z,7.90
2022-10-01T03:05:17.616Z,8.00
2022-10-01T03:07:44.346Z,8.00
2022-10-01T03:10:11.647Z,8.00
2022-10-01T03:12:41.206Z,8.00
2022-10-01T03:15:08.092Z,8.00
2022-10-01T03:17:37.173Z,8.00
2022-10-01T03:20:04.398Z,8.00
2022-10-01T03:22:31.432Z,7.90
2022-10-01T03:24:58.134Z,7.90
2022-10-01T03:27:24.901Z,7.90
2022-10-01T03:29:51.725Z,7.90
2022-10-01T03:32:18.929Z,7.90
2022-10-01T03:34:45.742Z,7.90
2022-10-01T03:37:12.449Z,7.90
2022-10-01T03:39:39.722Z,7.90
2022-10-01T03:42:07.113Z,7.90
2022-10-01T03:44:34.120Z,7.90
2022-10-01T03:47:00.898Z,7.90
2022-10-01T03:49:27.985Z,7.90
2022-10-01T03:51:54.781Z,8.00
2022-10-01T03:54:21.583Z,7.90
2022-10-01T03:56:48.959Z,8.00
2022-10-01T03:59:15.779Z,7.90
2022-10-01T04:01:42.598Z,8.00
2022-10-01T04:04:09.393Z,7.90
2022-10-01T04:06:36.178Z,7.90
2022-10-01T04:09:03.056Z,7.90
2022-10-01T04:11:30.269Z,7.90
2022-10-01T04:13:59.989Z,7.90
2022-10-01T04:16:26.867Z,7.90
2022-10-01T04:18:53.835Z,7.80
2022-10-01T04:21:20.609Z,7.90
2022-10-01T04:23:47.463Z,7.80
2022-10-01T04:26:14.243Z,7.80
2022-10-01T04:28:40.996Z,7.80
2022-10-01T04:31:25.950Z,7.70
2022-10-01T04:33:53.621Z,7.70
2022-10-01T04:36:20.779Z,7.60
2022-10-01T04:38:50.116Z,7.60
2022-10-01T04:41:16.830Z,7.50
2022-10-01T04:43:43.561Z,7.50
2022-10-01T04:46:10.319Z,7.50
2022-10-01T04:48:37.083Z,7.50
2022-10-01T04:51:03.906Z,7.50
2022-10-01T04:53:30.676Z,7.50
2022-10-01T04:55:57.404Z,7.50
2022-10-01T04:58:24.214Z,7.40
2022-10-01T05:00:51.104Z,7.40
2022-10-01T05:03:18.167Z,7.40
2022-10-01T05:05:44.996Z,7.50
2022-10-01T05:08:11.833Z,7.50
2022-10-01T05:10:38.677Z,7.50
2022-10-01T05:13:05.508Z,7.50
2022-10-01T05:15:33.021Z,7.60
2022-10-01T05:17:59.790Z,7.60
2022-10-01T05:20:27.241Z,7.70
2022-10-01T05:22:54.885Z,7.70
2022-10-01T05:25:21.693Z,7.70
2022-10-01T05:27:48.548Z,7.80
2022-10-01T05:30:20.146Z,7.80
2022-10-01T05:32:53.692Z,7.80
2022-10-01T05:35:20.462Z,7.90
2022-10-01T05:37:47.266Z,7.90
2022-10-01T05:40:14.083Z,7.90
2022-10-01T05:42:45.253Z,8.00
2022-10-01T05:45:11.994Z,8.00
2022-10-01T05:47:42.624Z,8.10
2022-10-01T05:50:09.661Z,8.20
2022-10-01T05:52:36.579Z,8.30
2022-10-01T05:55:03.427Z,8.30
2022-10-01T05:57:31.191Z,8.40
2022-10-01T05:59:58.067Z,8.50
2022-10-01T06:02:25.060Z,8.60
2022-10-01T06:04:51.917Z,8.70
2022-10-01T06:07:18.639Z,8.80
2022-10-01T06:09:45.402Z,8.90
2022-10-01T06:12:15.368Z,9.00
2022-10-01T06:14:44.444Z,9.10
2022-10-01T06:17:11.201Z,9.20
2022-10-01T06:19:37.947Z,9.20
2022-10-01T06:22:04.676Z,9.40
2022-10-01T06:24:31.858Z,9.40
2022-10-01T06:26:58.676Z,9.50
2022-10-01T06:29:25.449Z,9.60
2022-10-01T06:31:52.185Z,9.70
2022-10-01T06:34:18.950Z,9.80
2022-10-01T06:36:45.714Z,9.90
2022-10-01T06:39:12.433Z,10.00
2022-10-01T06:41:39.907Z,10.20
2022-10-01T06:44:10.402Z,10.30
2022-10-01T06:46:37.121Z,10.50
2022-10-01T06:49:03.836Z,10.60
2022-10-01T06:51:49.516Z,10.70
2022-10-01T06:54:18.338Z,10.80
2022-10-01T06:56:45.201Z,11.00
2022-10-01T06:59:11.985Z,11.00
2022-10-01T07:01:39.061Z,11.10
2022-10-01T07:04:06.125Z,11.20
2022-10-01T07:06:32.832Z,11.30
2022-10-01T07:09:00.052Z,11.30
2022-10-01T07:11:27.227Z,11.50
2022-10-01T07:13:54.844Z,11.50
2022-10-01T07:16:21.760Z,11.70
2022-10-01T07:18:48.531Z,11.80
2022-10-01T07:21:15.349Z,11.80
2022-10-01T07:23:42.273Z,11.90
2022-10-01T07:26:09.226Z,11.90
2022-10-01T07:28:36.099Z,12.00
2022-10-01T07:31:06.665Z,12.00
2022-10-01T07:33:33.989Z,12.00
2022-10-01T07:36:01.612Z,12.10
2022-10-01T07:38:28.545Z,12.10
2022-10-01T07:40:55.349Z,12.20
2022-10-01T07:43:22.602Z,12.20
2022-10-01T07:45:55.093Z,12.30
2022-10-01T07:48:22.115Z,12.40
2022-10-01T07:50:49.600Z,12.50
2022-10-01T07:53:16.766Z,12.50
2022-10-01T07:55:44.791Z,12.50
2022-10-01T07:58:14.329Z,12.60
2022-10-01T08:00:41.211Z,12.60
2022-10-01T08:03:12.053Z,12.70
2022-10-01T08:05:40.614Z,12.80
2022-10-01T08:08:08.654Z,12.80
2022-10-01T08:10:37.042Z,12.90
2022-10-01T08:13:08.255Z,13.00
2022-10-01T08:15:35.551Z,13.10
2022-10-01T08:18:03.187Z,13.20
2022-10-01T08:20:30.359Z,13.30
2022-10-01T08:23:03.887Z,13.30
2022-10-01T08:25:30.860Z,13.40
2022-10-01T08:27:57.664Z,13.40
2022-10-01T08:30:25.451Z,13.60
2022-10-01T08:32:55.945Z,13.60
2022-10-01T08:35:23.323Z,13.70
2022-10-01T08:37:50.418Z,13.70
2022-10-01T08:40:19.118Z,13.80
2022-10-01T08:42:56.064Z,13.90
2022-10-01T08:45:33.572Z,14.00
2022-10-01T08:48:03.723Z,14.00
2022-10-01T08:50:30.448Z,14.10
2022-10-01T08:53:00.308Z,14.10
2022-10-01T08:55:28.125Z,14.20
2022-10-01T08:57:58.407Z,14.20
2022-10-01T09:00:33.380Z,14.20
2022-10-01T09:03:03.881Z,14.30
2022-10-01T09:05:49.144Z,14.40
2022-10-01T09:08:45.174Z,14.50
2022-10-01T09:11:14.633Z,14.60
2022-10-01T09:13:51.608Z,14.90
2022-10-01T09:16:18.410Z,14.80
2022-10-01T09:18:45.212Z,14.90
2022-10-01T09:21:18.050Z,14.90
2022-10-01T09:23:51.040Z,14.80
2022-10-01T09:26:20.385Z,14.80
2022-10-01T09:28:50.315Z,14.90
2022-10-01T09:31:24.978Z,15.00
2022-10-01T09:34:15.037Z,15.10
2022-10-01T09:36:50.856Z,15.20
2022-10-01T09:39:28.358Z,15.30
2022-10-01T09:41:55.193Z,15.20
2022-10-01T09:44:26.669Z,15.30
2022-10-01T09:46:53.616Z,15.30
2022-10-01T09:49:20.386Z,15.30
2022-10-01T09:51:49.797Z,15.30
2022-10-01T09:54:28.853Z,15.30
2022-10-01T09:56:59.971Z,15.40
2022-10-01T09:59:42.146Z,15.60
2022-10-01T10:02:17.707Z,15.70
2022-10-01T10:04:44.528Z,15.80
2022-10-01T10:07:14.925Z,15.80
2022-10-01T10:09:41.686Z,15.80
2022-10-01T10:12:24.353Z,16.00
2022-10-01T10:14:51.151Z,16.00
2022-10-01T10:17:17.945Z,16.00
2022-10-01T10:19:51.784Z,16.00
2022-10-01T10:22:24.800Z,16.00
2022-10-01T10:24:56.711Z,15.90
2022-10-01T10:27:26.726Z,16.00
2022-10-01T10:30:12.047Z,16.00
2022-10-01T10:32:39.057Z,16.10
2022-10-01T10:35:10.580Z,16.20
2022-10-01T10:37:38.175Z,16.20
2022-10-01T10:40:06.365Z,16.10
2022-10-01T10:42:34.222Z,16.20
2022-10-01T10:45:03.905Z,16.30
2022-10-01T10:47:32.294Z,16.40
2022-10-01T10:50:03.889Z,16.40
2022-10-01T10:52:33.276Z,16.50
2022-10-01T10:55:01.111Z,16.60
2022-10-01T10:57:28.909Z,16.70
2022-10-01T11:00:00.342Z,16.50
2022-10-01T11:02:31.460Z,16.30
2022-10-01T11:04:59.892Z,16.10
2022-10-01T11:07:27.425Z,16.00
2022-10-01T11:10:03.031Z,15.90
2022-10-01T11:12:32.547Z,15.80
2022-10-01T11:15:11.319Z,15.70
2022-10-01T11:17:47.165Z,15.70
2022-10-01T11:20:35.439Z,15.60
2022-10-01T11:23:14.458Z,15.70
2022-10-01T11:25:42.003Z,15.60
2022-10-01T11:28:14.924Z,15.70
2022-10-01T11:30:48.421Z,15.60
2022-10-01T11:33:54.301Z,15.50
2022-10-01T11:36:29.394Z,15.40
2022-10-01T11:39:00.304Z,15.40
2022-10-01T11:41:41.562Z,15.40
2022-10-01T11:44:08.301Z,15.50
2022-10-01T11:46:42.710Z,15.80
2022-10-01T11:49:21.215Z,15.90
2022-10-01T11:52:08.761Z,16.00
2022-10-01T11:54:38.624Z,16.00
2022-10-01T11:57:26.424Z,15.90
2022-10-01T11:59:56.617Z,15.90
2022-10-01T12:02:43.623Z,15.80
2022-10-01T12:05:17.231Z,15.80
2022-10-01T12:07:55.163Z,15.70
2022-10-01T12:10:40.607Z,15.70
2022-10-01T12:13:20.886Z,15.60
2022-10-01T12:16:01.895Z,15.60
2022-10-01T12:18:40.704Z,15.60
2022-10-01T12:21:11.305Z,15.70
2022-10-01T12:23:45.553Z,15.70
2022-10-01T12:26:15.155Z,15.60
2022-10-01T12:28:51.559Z,15.70
2022-10-01T12:31:28.843Z,15.90
2022-10-01T12:33:59.151Z,16.10
2022-10-01T12:36:25.892Z,16.00
2022-10-01T12:39:04.731Z,16.10
2022-10-01T12:41:43.390Z,16.30
2022-10-01T12:44:10.092Z,16.40
2022-10-01T12:46:46.944Z,16.60
2022-10-01T12:49:22.189Z,16.40
2022-10-01T12:52:18.246Z,16.20
2022-10-01T12:54:57.745Z,16.00
2022-10-01T12:57:28.926Z,15.90
2022-10-01T13:00:01.888Z,15.70
2022-10-01T13:02:28.639Z,15.70
2022-10-01T13:04:58.537Z,15.60
2022-10-01T13:07:31.689Z,15.50
2022-10-01T13:09:58.426Z,15.50
2022-10-01T13:12:43.955Z,15.40
2022-10-01T13:15:17.028Z,15.50
2022-10-01T13:17:49.973Z,15.60
2022-10-01T13:20:16.733Z,15.60
2022-10-01T13:23:15.866Z,15.60
2022-10-01T13:25:51.739Z,15.60
2022-10-01T13:28:26.768Z,15.70
2022-10-01T13:30:53.602Z,15.70
2022-10-01T13:33:26.242Z,15.80
2022-10-01T13:35:54.841Z,15.80
2022-10-01T13:38:30.488Z,15.80
2022-10-01T13:41:01.849Z,15.70
2022-10-01T13:43:29.984Z,15.70
2022-10-01T13:46:04.255Z,15.80
2022-10-01T13:48:35.297Z,15.80
2022-10-01T13:51:03.077Z,15.80
2022-10-01T13:53:35.365Z,15.80
2022-10-01T13:56:02.688Z,15.70
2022-10-01T13:58:29.543Z,15.60
2022-10-01T14:00:57.870Z,15.50
2022-10-01T14:03:30.406Z,15.40
2022-10-01T14:05:57.702Z,15.20
2022-10-01T14:08:29.278Z,15.20
2022-10-01T14:11:22.263Z,15.20
2022-10-01T14:14:09.584Z,15.10
2022-10-01T14:16:39.372Z,15.10
2022-10-01T14:19:06.148Z,15.10
2022-10-01T14:21:32.889Z,15.10
2022-10-01T14:23:59.654Z,15.00
2022-10-01T14:26:32.749Z,14.90
2022-10-01T14:29:02.935Z,15.00
2022-10-01T14:31:29.756Z,14.80
2022-10-01T14:34:07.884Z,14.80
2022-10-01T14:36:50.860Z,14.80
2022-10-01T14:39:18.883Z,14.70
2022-10-01T14:41:46.815Z,14.70
2022-10-01T14:44:25.984Z,14.70
2022-10-01T14:46:53.709Z,14.60
2022-10-01T14:49:23.076Z,14.60
2022-10-01T14:51:55.251Z,14.50
2022-10-01T14:54:22.935Z,14.60
2022-10-01T14:56:50.374Z,14.50
2022-10-01T14:59:29.978Z,14.50
2022-10-01T15:01:58.133Z,14.50
2022-10-01T15:04:25.432Z,14.40
2022-10-01T15:06:52.343Z,14.40
2022-10-01T15:09:20.551Z,14.40
2022-10-01T15:11:48.667Z,14.40
2022-10-01T15:14:18.121Z,14.30
2022-10-01T15:16:45.069Z,14.30
2022-10-01T15:19:17.148Z,14.30
2022-10-01T15:22:10.219Z,14.20
2022-10-01T15:24:40.218Z,14.10
2022-10-01T15:27:08.244Z,14.00
2022-10-01T15:29:35.940Z,14.00
2022-10-01T15:32:03.937Z,14.00
2022-10-01T15:34:31.076Z,13.90
2022-10-01T15:36:59.918Z,13.90
2022-10-01T15:39:34.063Z,13.90
2022-10-01T15:42:12.067Z,13.80
2022-10-01T15:44:40.626Z,13.80
2022-10-01T15:47:19.397Z,13.70
2022-10-01T15:50:04.682Z,13.70
2022-10-01T15:52:52.070Z,13.60
2022-10-01T15:55:24.020Z,13.60
2022-10-01T15:57:54.731Z,13.60
2022-10-01T16:00:22.775Z,13.50
2022-10-01T16:02:49.903Z,13.40
2022-10-01T16:05:19.916Z,13.40
2022-10-01T16:07:48.287Z,13.40
2022-10-01T16:10:35.339Z,13.30
2022-10-01T16:13:20.845Z,13.20
2022-10-01T16:16:05.780Z,13.20
2022-10-01T16:18:34.731Z,13.20
2022-10-01T16:21:01.463Z,13.10
2022-10-01T16:23:34.858Z,13.20
2022-10-01T16:26:03.022Z,13.10
2022-10-01T16:28:31.390Z,13.00
2022-10-01T16:30:58.243Z,13.00
2022-10-01T16:33:26.695Z,13.00
2022-10-01T16:36:06.754Z,13.00
2022-10-01T16:38:33.584Z,12.90
2022-10-01T16:41:00.596Z,12.80
2022-10-01T16:43:27.867Z,12.80
2022-10-01T16:45:55.379Z,12.70
2022-10-01T16:48:24.920Z,12.70
2022-10-01T16:50:53.765Z,12.70
2022-10-01T16:53:20.956Z,12.70
2022-10-01T16:55:47.694Z,12.60
2022-10-01T16:58:14.564Z,12.60
2022-10-01T17:00:41.997Z,12.50
2022-10-01T17:03:14.283Z,12.50
2022-10-01T17:05:41.244Z,12.40
2022-10-01T17:08:11.461Z,12.40
2022-10-01T17:10:51.263Z,12.40
2022-10-01T17:13:18.019Z,12.40
2022-10-01T17:15:44.837Z,12.40
2022-10-01T17:18:12.220Z,12.30
2022-10-01T17:20:39.145Z,12.30
2022-10-01T17:23:06.287Z,12.30
2022-10-01T17:25:35.639Z,12.30
2022-10-01T17:28:03.621Z,12.20
2022-10-01T17:30:30.965Z,12.20
2022-10-01T17:32:59.402Z,12.20
2022-10-01T17:35:26.642Z,12.10
2022-10-01T17:37:53.416Z,12.10
2022-10-01T17:40:20.319Z,12.10
2022-10-01T17:42:47.030Z,12.10
2022-10-01T17:45:14.237Z,12.10
2022-10-01T17:47:45.282Z,12.10
2022-10-01T17:50:12.772Z,12.10
2022-10-01T17:52:39.647Z,12.10
2022-10-01T17:55:06.791Z,12.00
2022-10-01T17:57:33.773Z,12.00
2022-10-01T18:00:00.606Z,11.90
2022-10-01T18:02:41.476Z,11.90
2022-10-01T18:05:09.638Z,11.90
2022-10-01T18:07:39.377Z,11.90
2022-10-01T18:10:06.725Z,11.90
2022-10-01T18:12:33.873Z,11.90
2022-10-01T18:15:00.738Z,11.90
2022-10-01T18:17:27.752Z,11.80
2022-10-01T18:19:54.783Z,11.80
2022-10-01T18:22:21.616Z,11.80
2022-10-01T18:24:48.400Z,11.80
2022-10-01T18:27:15.246Z,11.80
2022-10-01T18:29:42.044Z,11.70
2022-10-01T18:32:14.119Z,11.70
2022-10-01T18:34:49.729Z,11.70
2022-10-01T18:37:40.209Z,11.70
2022-10-01T18:40:17.908Z,11.70
2022-10-01T18:42:50.454Z,11.60
2022-10-01T18:45:22.171Z,11.60
2022-10-01T18:47:48.919Z,11.60
2022-10-01T18:50:26.857Z,11.60
2022-10-01T18:53:12.479Z,11.50
2022-10-01T18:56:14.682Z,11.50
2022-10-01T18:58:59.888Z,11.50
2022-10-01T19:01:35.654Z,11.40
2022-10-01T19:04:08.721Z,11.40
2022-10-01T19:06:43.668Z,11.30
2022-10-01T19:09:10.395Z,11.30
2022-10-01T19:11:40.259Z,11.20
2022-10-01T19:14:15.992Z,11.20
2022-10-01T19:17:03.036Z,11.20
2022-10-01T19:19:32.488Z,11.10
2022-10-01T19:22:20.181Z,11.10
2022-10-01T19:25:02.351Z,11.10
2022-10-01T19:27:39.036Z,11.00
2022-10-01T19:30:09.040Z,11.00
2022-10-01T19:32:42.120Z,11.00
2022-10-01T19:35:27.956Z,10.90
2022-10-01T19:38:02.773Z,10.90
2022-10-01T19:40:32.683Z,10.90
2022-10-01T19:43:19.691Z,10.90
2022-10-01T19:46:06.685Z,10.90
2022-10-01T19:48:44.223Z,10.90
2022-10-01T19:51:12.634Z,10.90
2022-10-01T19:53:42.482Z,10.90
2022-10-01T19:56:29.472Z,10.90
2022-10-01T19:58:57.996Z,10.90
2022-10-01T20:01:28.463Z,10.90
2022-10-01T20:04:01.150Z,10.90
2022-10-01T20:06:33.411Z,10.90
2022-10-01T20:09:03.198Z,10.90
2022-10-01T20:11:41.052Z,10.80
2022-10-01T20:14:07.872Z,10.90
2022-10-01T20:16:40.804Z,10.90
2022-10-01T20:19:19.691Z,10.90
2022-10-01T20:22:07.201Z,10.90
2022-10-01T20:24:36.761Z,10.90
2022-10-01T20:27:11.490Z,10.90
2022-10-01T20:29:44.119Z,10.90
2022-10-01T20:32:18.541Z,10.90
2022-10-01T20:34:50.528Z,10.90
2022-10-01T20:37:34.935Z,10.90
2022-10-01T20:40:05.417Z,10.90
2022-10-01T20:42:36.602Z,10.90
2022-10-01T20:45:04.478Z,10.90
2022-10-01T20:47:40.293Z,10.90
2022-10-01T20:50:13.268Z,10.90
2022-10-01T20:52:58.694Z,10.90
2022-10-01T20:55:32.869Z,10.90
2022-10-01T20:58:06.550Z,10.90
2022-10-01T21:00:33.482Z,10.90
2022-10-01T21:03:18.744Z,10.90
2022-10-01T21:05:48.185Z,10.90
2022-10-01T21:08:34.347Z,10.90
2022-10-01T21:11:14.470Z,10.90
2022-10-01T21:13:47.449Z,10.90
2022-10-01T21:16:26.584Z,10.90
2022-10-01T21:18:57.351Z,10.90
2022-10-01T21:21:26.852Z,10.90
2022-10-01T21:24:02.993Z,10.90
2022-10-01T21:26:58.872Z,10.90
2022-10-01T21:29:34.109Z,10.90
2022-10-01T21:32:10.874Z,10.90
2022-10-01T21:34:38.507Z,10.90
2022-10-01T21:37:11.165Z,10.90
2022-10-01T21:39:43.955Z,10.90
2022-10-01T21:42:22.827Z,10.90
2022-10-01T21:45:08.119Z,10.80
2022-10-01T21:47:34.946Z,10.80
2022-10-01T21:50:01.623Z,10.80
2022-10-01T21:52:31.150Z,10.70
2022-10-01T21:55:05.707Z,10.70
2022-10-01T21:57:43.257Z,10.70
2022-10-01T22:00:24.853Z,10.70
2022-10-01T22:03:12.155Z,10.70
2022-10-01T22:05:51.120Z,10.60
2022-10-01T22:08:18.637Z,10.70
2022-10-01T22:10:53.111Z,10.60
2022-10-01T22:13:21.641Z,10.70
2022-10-01T22:15:52.038Z,10.60
2022-10-01T22:18:24.455Z,10.60
2022-10-01T22:20:51.647Z,10.60
2022-10-01T22:23:19.457Z,10.60
2022-10-01T22:25:53.170Z,10.60
2022-10-01T22:28:23.439Z,10.60
2022-10-01T22:30:51.390Z,10.60
2022-10-01T22:33:23.986Z,10.60
2022-10-01T22:35:50.660Z,10.60
2022-10-01T22:38:20.533Z,10.60
2022-10-01T22:40:54.119Z,10.60
2022-10-01T22:43:20.943Z,10.70
2022-10-01T22:45:47.974Z,10.70
2022-10-01T22:48:23.964Z,10.70
2022-10-01T22:51:05.613Z,10.80
2022-10-01T22:53:55.597Z,10.80
2022-10-01T22:56:27.593Z,10.80
2022-10-01T22:59:14.567Z,10.80
2022-10-01T23:01:46.343Z,10.80
2022-10-01T23:04:13.068Z,10.80
2022-10-01T23:06:44.463Z,10.80
2022-10-01T23:09:11.191Z,10.70
2022-10-01T23:11:56.700Z,10.80
2022-10-01T23:14:36.680Z,10.80
2022-10-01T23:17:06.274Z,10.80
2022-10-01T23:19:38.238Z,10.80
2022-10-01T23:22:16.936Z,10.80
2022-10-01T23:25:02.017Z,10.80
2022-10-01T23:27:33.932Z,10.80
2022-10-01T23:30:14.284Z,10.80
2022-10-01T23:32:54.766Z,10.80
2022-10-01T23:35:22.567Z,10.80
2022-10-01T23:38:01.274Z,10.80
2022-10-01T23:40:30.791Z,10.80
2022-10-01T23:43:06.633Z,10.70
2022-10-01T23:45:36.231Z,10.70
2022-10-01T23:48:06.084Z,10.70
2022-10-01T23:50:52.926Z,10.70
2022-10-01T23:53:31.051Z,10.70
2022-10-01T23:56:25.583Z,10.70
2022-10-01T23:59:04.193Z,10.70
